Crandalls Lodge, Iowa
Current Conditions -  °F | °C
As of 1:33 AM on Wednesday 22 Oct 2014 (Local Time) from KMJQ Reporting Station
Clear Clear  
Wind Chill: 42°   Ceiling: Unl
Heat Index: 48°   Visibility: 10mi
Dew Point: 37°   Wind: 15mph
Humidity: 66%   Direction: 160°SSE
Pressure: 30.11"   Gusts: 20mph
Location:  43.4265°N, 95.1547°W
Report Text: KMJQ 220633Z AUTO 16013G17KT 10SM CLR 09/03 A3011 RMK AO2
Loading
Personal Weather Stations






























Interactive Weather Map
Tropical Storm Tracking
New forecast layout! Learn more

10-Day Weather Forecast

Advertisements
Track Severe Weather on mobile